Terminal Aerodrome Forecast
Issued by NWS Binghamton, NY

Home | Current Version | Previous Version | Text Only | Print | Product List | Glossary On
Versions: 1 2 3 4 5 6 7 8 9 10 11 12 13 14 15 16 17 18 19 20
087
FTUS41 KBGM 241141
TAFSYR
TAF
KSYR 241141Z 2412/2512 28008KT P6SM SCT018 OVC025
      TEMPO 2412/2415 OVC018
     FM241600 31007KT P6SM BKN035
     FM242100 VRB03KT P6SM SCT120 BKN250
     FM250300 08007KT P6SM OVC100
     FM250800 10012KT 5SM -RA BR OVC025=

USA.gov is the U.S. government's official web portal to all federal, state and local government web resources and services.